Richmond, Illinois
Current Conditions -  °F | °C
As of 3:15 AM on Monday 20 Oct 2014 (Local Time) from KBUU Reporting Station
Scattered Clouds Scattered Clouds  
Wind Chill:   Ceiling: Unl
Heat Index:   Visibility: 10mi
Dew Point:   Wind: 3mph
Humidity: 85%   Direction: 190°S
Pressure: 29.8"   Gusts: NA
Location:  42.48°N, 88.31°W
Report Text: KBUU 200815Z AUTO 19003KT 10SM SCT060 SCT075 07/05 A2980 RMK AO2 T00740050
Loading
Personal Weather Stations






























Interactive Weather Map
Tropical Storm Tracking
New forecast layout! Learn more

10-Day Weather Forecast

Advertisements
Track Severe Weather on mobile